Time;durP1;ratioP1;P1;durP2;ratioP2;P2;SDS_P1;SDS_P2;PMS_P1;PMS_P2;Temp;Humidity;BMP_temperature;BMP_pressure;BME280_temperature;BME280_humidity;BME280_pressure;Samples;Min_cycle;Max_cycle;Signal;HPM_P1;HPM_P2
2022/01/19 00:00:32;;;;;;;59.15;27.30;;;5.70;99.90;;;;;;5040981;28;20092;-76
2022/01/19 00:02:58;;;;;;;53.15;26.92;;;5.70;99.90;;;;;;5039968;28;20034;-77
2022/01/19 00:05:24;;;;;;;58.78;28.75;;;5.70;99.90;;;;;;5041617;28;20033;-74
2022/01/19 00:07:49;;;;;;;58.83;28.25;;;5.70;99.90;;;;;;5036092;28;20041;-76
2022/01/19 00:10:19;;;;;;;62.92;26.95;;;5.60;99.90;;;;;;5042761;28;20052;-76
2022/01/19 00:12:45;;;;;;;64.65;28.40;;;5.60;99.90;;;;;;5049759;28;20032;-76
2022/01/19 00:15:12;;;;;;;54.85;25.00;;;5.60;99.90;;;;;;5046253;28;20369;-76
2022/01/19 00:17:38;;;;;;;50.40;24.33;;;5.40;99.90;;;;;;5045345;28;20041;-74
2022/01/19 00:20:06;;;;;;;53.00;23.73;;;5.30;99.90;;;;;;5056872;28;20033;-76
2022/01/19 00:22:32;;;;;;;55.55;24.80;;;5.20;99.90;;;;;;5046936;28;20021;-76
2022/01/19 00:24:58;;;;;;;52.50;23.58;;;5.10;99.90;;;;;;5044916;28;20473;-76
2022/01/19 00:27:24;;;;;;;37.92;19.13;;;5.00;99.90;;;;;;5042993;28;20111;-76
2022/01/19 00:29:50;;;;;;;38.45;21.20;;;5.00;99.90;;;;;;5038795;28;20025;-74
2022/01/19 00:32:16;;;;;;;44.38;22.65;;;4.90;99.90;;;;;;5029911;28;20944;-76
2022/01/19 00:34:42;;;;;;;54.47;26.67;;;4.90;99.90;;;;;;5032645;28;20049;-76
2022/01/19 00:37:07;;;;;;;54.75;25.08;;;4.90;99.90;;;;;;5028183;28;20060;-75
2022/01/19 00:39:33;;;;;;;51.47;26.17;;;4.80;99.90;;;;;;5030813;28;20471;-75
2022/01/19 00:42:00;;;;;;;43.03;22.20;;;4.80;99.90;;;;;;5035392;28;20072;-75
2022/01/19 00:44:26;;;;;;;42.05;21.60;;;4.70;99.90;;;;;;5031726;28;20033;-76
2022/01/19 00:46:52;;;;;;;43.40;21.98;;;4.70;99.90;;;;;;5036548;28;20100;-76
2022/01/19 00:49:17;;;;;;;45.42;23.15;;;4.70;99.90;;;;;;5029233;28;20094;-76
2022/01/19 00:51:43;;;;;;;46.65;21.60;;;4.70;99.90;;;;;;5040544;28;20036;-75
2022/01/19 00:54:09;;;;;;;49.33;24.88;;;4.70;99.90;;;;;;5041037;28;20029;-76
2022/01/19 00:56:34;;;;;;;56.03;25.00;;;4.60;99.90;;;;;;5035032;28;20052;-76
2022/01/19 00:59:00;;;;;;;60.13;27.33;;;4.60;99.90;;;;;;5042142;28;20079;-76
2022/01/19 01:01:27;;;;;;;64.25;27.33;;;4.60;99.90;;;;;;5045738;28;20406;-76
2022/01/19 01:03:52;;;;;;;57.47;26.73;;;4.70;99.90;;;;;;5039537;28;20028;-76
2022/01/19 01:06:20;;;;;;;57.95;26.38;;;4.70;99.90;;;;;;5041793;28;20040;-76
2022/01/19 01:08:46;;;;;;;49.85;23.27;;;4.60;99.90;;;;;;5040462;28;20088;-76
2022/01/19 01:11:11;;;;;;;58.95;24.90;;;4.70;99.90;;;;;;5041352;28;20026;-74
2022/01/19 01:16:50;;;;;;;53.47;25.42;;;4.70;99.90;;;;;;5037464;28;20516;-76
2022/01/19 01:19:16;;;;;;;57.92;27.67;;;4.70;99.90;;;;;;5039832;28;20049;-76
2022/01/19 01:21:42;;;;;;;56.03;28.15;;;4.80;99.90;;;;;;5033609;28;20103;-76
2022/01/19 01:24:08;;;;;;;53.78;26.40;;;4.70;99.90;;;;;;5037984;28;20110;-76
2022/01/19 01:26:33;;;;;;;55.03;26.52;;;4.70;99.90;;;;;;5037897;28;20016;-76
2022/01/19 01:28:59;;;;;;;51.25;22.52;;;4.70;99.90;;;;;;5038178;28;20421;-75
2022/01/19 01:31:25;;;;;;;62.22;25.08;;;4.70;99.90;;;;;;5037992;28;20040;-76
2022/01/19 01:33:50;;;;;;;53.92;25.10;;;4.70;99.90;;;;;;5034388;28;20107;-76
2022/01/19 01:36:16;;;;;;;51.00;25.58;;;4.60;99.90;;;;;;5035726;28;20032;-76
2022/01/19 01:38:42;;;;;;;58.60;25.55;;;4.70;99.90;;;;;;5035605;28;20159;-76
2022/01/19 01:41:12;;;;;;;57.05;24.42;;;4.70;99.90;;;;;;5043145;28;20083;-76
2022/01/19 01:43:38;;;;;;;64.45;26.38;;;4.50;99.90;;;;;;5037966;28;20028;-76
2022/01/19 01:46:11;;;;;;;58.47;26.65;;;4.50;99.90;;;;;;5042672;28;20025;-76
2022/01/19 01:48:43;;;;;;;56.15;25.52;;;4.60;99.90;;;;;;5045595;28;20025;-74
2022/01/19 01:53:57;;;;;;;50.95;24.13;;;4.60;99.90;;;;;;5038964;28;20043;-76
2022/01/19 01:56:23;;;;;;;58.13;24.70;;;4.50;99.90;;;;;;5043000;28;20111;-76
2022/01/19 01:58:51;;;;;;;64.13;25.60;;;4.50;99.90;;;;;;5037499;28;20095;-76
2022/01/19 02:01:17;;;;;;;54.35;25.70;;;4.50;99.90;;;;;;5042768;28;20370;-76
2022/01/19 02:03:44;;;;;;;55.28;25.35;;;4.50;99.90;;;;;;5042999;28;20052;-76
2022/01/19 02:09:09;;;;;;;76.63;30.15;;;4.40;99.90;;;;;;5048371;28;20108;-75
2022/01/19 02:23:21;;;;;;;55.88;25.15;;;4.00;99.90;;;;;;5034286;28;20064;-76
2022/01/19 02:25:49;;;;;;;56.33;22.02;;;4.00;99.90;;;;;;5041320;28;20450;-76
2022/01/19 02:31:33;;;;;;;48.78;23.92;;;4.00;99.90;;;;;;5042307;28;20040;-74
2022/01/19 02:36:53;;;;;;;55.08;24.98;;;3.90;99.90;;;;;;5033722;28;20502;-75
2022/01/19 02:42:09;;;;;;;54.25;25.17;;;4.00;99.90;;;;;;5037095;28;20082;-75
2022/01/19 02:49:43;;;;;;;57.63;24.83;;;4.10;99.90;;;;;;5036337;28;20032;-75
2022/01/19 02:52:09;;;;;;;52.67;24.70;;;4.10;99.90;;;;;;5041544;28;20131;-75
2022/01/19 02:54:35;;;;;;;56.28;25.55;;;4.10;99.90;;;;;;5046684;28;20029;-76
2022/01/19 02:57:02;;;;;;;58.45;25.10;;;4.10;99.90;;;;;;5034534;28;20044;-75
2022/01/19 02:59:48;;;;;;;56.60;26.48;;;4.10;99.90;;;;;;5035280;28;22233;-75
2022/01/19 03:10:27;;;;;;;58.13;26.42;;;4.10;99.90;;;;;;5039579;28;20041;-75
2022/01/19 03:12:52;;;;;;;56.90;25.77;;;4.00;99.90;;;;;;5043121;28;20026;-75
2022/01/19 03:15:19;;;;;;;57.67;26.38;;;4.10;99.90;;;;;;5039997;28;20029;-75
2022/01/19 03:17:44;;;;;;;60.92;27.27;;;4.10;99.90;;;;;;5040153;28;20029;-75
2022/01/19 03:20:11;;;;;;;52.28;24.15;;;4.10;99.90;;;;;;5037815;28;20554;-75
2022/01/19 03:22:45;;;;;;;62.05;25.30;;;4.00;99.90;;;;;;5043175;28;20036;-75
2022/01/19 03:25:12;;;;;;;63.58;27.60;;;4.10;99.90;;;;;;5032696;28;20108;-75
2022/01/19 03:27:47;;;;;;;68.95;28.52;;;4.00;99.90;;;;;;5041198;28;20037;-74
2022/01/19 03:30:18;;;;;;;63.38;28.08;;;4.10;99.90;;;;;;5039001;28;20018;-75
2022/01/19 03:32:44;;;;;;;80.93;33.30;;;4.10;99.90;;;;;;5043061;28;20033;-75
2022/01/19 03:35:12;;;;;;;64.45;27.02;;;4.10;99.90;;;;;;5032978;28;20449;-73
2022/01/19 03:37:38;;;;;;;59.78;27.00;;;4.10;99.90;;;;;;5040594;28;20041;-75
2022/01/19 03:40:06;;;;;;;63.35;26.48;;;4.10;99.90;;;;;;5045048;28;20029;-75
2022/01/19 03:42:31;;;;;;;68.95;28.70;;;4.10;99.90;;;;;;5039512;28;20119;-75
2022/01/19 03:44:57;;;;;;;73.15;29.40;;;4.10;99.90;;;;;;5038517;28;20025;-75
2022/01/19 03:47:26;;;;;;;79.75;31.67;;;4.10;99.90;;;;;;5041303;28;20029;-73
2022/01/19 03:49:51;;;;;;;79.57;35.28;;;4.00;99.90;;;;;;5038379;28;20511;-75
2022/01/19 03:52:17;;;;;;;86.45;35.10;;;4.10;99.90;;;;;;5037508;28;20029;-75
2022/01/19 03:54:44;;;;;;;77.32;34.22;;;4.00;99.90;;;;;;5040150;28;20029;-75
2022/01/19 03:57:10;;;;;;;82.00;36.72;;;4.10;99.90;;;;;;5035356;28;20062;-76
2022/01/19 03:59:36;;;;;;;76.43;33.65;;;4.10;99.90;;;;;;5040078;28;20060;-75
2022/01/19 04:02:02;;;;;;;79.60;35.45;;;4.00;99.90;;;;;;5038948;28;20418;-75
2022/01/19 04:04:36;;;;;;;79.88;33.70;;;3.90;99.90;;;;;;5038653;28;20029;-75
2022/01/19 04:09:32;;;;;;;65.07;29.98;;;3.90;99.90;;;;;;5041301;28;20025;-76
2022/01/19 04:11:58;;;;;;;58.78;28.85;;;3.90;99.90;;;;;;5042919;28;20100;-75
2022/01/19 04:14:26;;;;;;;62.05;30.80;;;3.90;99.90;;;;;;5044860;28;20485;-76
2022/01/19 04:16:57;;;;;;;63.78;28.02;;;3.80;99.90;;;;;;5045810;28;20026;-75
2022/01/19 04:19:28;;;;;;;53.50;26.50;;;3.80;99.90;;;;;;5040539;28;20040;-75
2022/01/19 04:21:55;;;;;;;60.53;28.92;;;3.70;99.90;;;;;;5042485;28;20022;-75
2022/01/19 04:24:21;;;;;;;62.85;29.50;;;3.80;99.90;;;;;;5042210;28;20754;-75
2022/01/19 04:29:32;;;;;;;60.67;30.08;;;3.80;99.90;;;;;;5040611;28;20076;-75
2022/01/19 04:31:57;;;;;;;57.88;27.83;;;3.80;99.90;;;;;;5049262;28;20029;-75
2022/01/19 04:34:23;;;;;;;63.38;30.00;;;3.80;99.90;;;;;;5042345;28;20107;-75
2022/01/19 05:06:07;;;;;;;59.17;29.85;;;3.80;99.90;;;;;;5041093;28;20044;-75
2022/01/19 05:08:57;;;;;;;68.93;30.48;;;3.80;99.90;;;;;;5038637;28;20052;-75
2022/01/19 05:14:07;;;;;;;57.42;27.67;;;3.70;99.90;;;;;;5034991;28;20052;-75
2022/01/19 05:16:32;;;;;;;56.15;27.83;;;3.80;99.90;;;;;;5037256;28;20130;-74
2022/01/19 05:18:59;;;;;;;59.00;26.90;;;3.70;99.90;;;;;;5039174;28;20052;-75
2022/01/19 05:21:24;;;;;;;60.38;29.48;;;3.70;99.90;;;;;;5041712;28;20066;-75
2022/01/19 05:23:50;;;;;;;64.40;28.50;;;3.80;99.90;;;;;;5042882;28;20024;-75
2022/01/19 05:26:16;;;;;;;54.35;26.17;;;3.80;99.90;;;;;;5037713;28;20036;-76
2022/01/19 05:28:42;;;;;;;66.07;28.98;;;3.80;99.90;;;;;;5042365;28;20029;-75
2022/01/19 05:31:08;;;;;;;62.70;29.25;;;3.90;99.90;;;;;;5036845;28;20024;-75
2022/01/19 05:33:34;;;;;;;65.28;30.20;;;3.80;99.90;;;;;;5032850;28;20064;-73
2022/01/19 05:36:00;;;;;;;58.65;28.67;;;3.90;99.90;;;;;;5046651;28;20033;-74
2022/01/19 05:38:25;;;;;;;63.35;29.05;;;3.90;99.90;;;;;;5042959;28;20063;-75
2022/01/19 05:40:51;;;;;;;56.00;29.48;;;3.80;99.90;;;;;;5037627;28;20525;-75
2022/01/19 05:43:17;;;;;;;57.05;28.67;;;3.90;99.90;;;;;;5040764;28;20086;-75
2022/01/19 05:45:43;;;;;;;60.92;28.23;;;4.00;99.90;;;;;;5038417;28;20052;-75
2022/01/19 05:48:09;;;;;;;61.28;29.25;;;4.00;99.90;;;;;;5044374;28;20147;-74
2022/01/19 05:50:35;;;;;;;68.18;29.77;;;4.00;99.90;;;;;;5037217;28;20021;-75
2022/01/19 05:53:01;;;;;;;72.75;31.35;;;4.00;99.90;;;;;;5043054;28;20036;-75
2022/01/19 05:55:26;;;;;;;65.38;29.13;;;4.10;99.90;;;;;;5037998;28;20390;-75
2022/01/19 05:57:53;;;;;;;59.28;29.15;;;4.20;99.90;;;;;;5042615;28;20038;-75
2022/01/19 06:00:18;;;;;;;58.33;28.23;;;4.20;99.90;;;;;;5040116;28;20139;-75
2022/01/19 06:02:44;;;;;;;60.92;29.50;;;4.10;99.90;;;;;;5042047;28;20448;-75
2022/01/19 06:05:10;;;;;;;65.93;30.05;;;4.10;99.90;;;;;;5044233;28;20094;-75
2022/01/19 06:07:46;;;;;;;59.97;28.48;;;4.10;99.90;;;;;;5039186;28;20438;-76
2022/01/19 06:10:42;;;;;;;57.95;27.65;;;4.20;99.90;;;;;;5047480;28;20026;-75
2022/01/19 06:12:59;;;;;;;56.60;26.92;;;4.10;99.90;;;;;;5038045;28;20037;-75
2022/01/19 06:15:25;;;;;;;55.42;27.10;;;4.10;99.90;;;;;;5036392;28;20028;-73
2022/01/19 06:17:51;;;;;;;59.55;28.88;;;4.00;99.90;;;;;;5039401;28;20033;-74
2022/01/19 06:20:16;;;;;;;51.80;25.90;;;4.20;99.90;;;;;;5041457;28;20091;-74
2022/01/19 06:22:42;;;;;;;59.53;27.83;;;4.30;99.90;;;;;;5039881;28;20026;-74
2022/01/19 06:25:08;;;;;;;58.20;27.60;;;4.30;99.90;;;;;;5040340;28;20112;-75
2022/01/19 06:27:34;;;;;;;51.45;25.73;;;4.30;99.90;;;;;;5036628;28;20537;-75
2022/01/19 06:29:59;;;;;;;59.90;30.35;;;4.30;99.90;;;;;;5038474;28;20079;-75
2022/01/19 06:32:25;;;;;;;48.28;26.80;;;4.40;99.90;;;;;;5038197;28;20082;-75
2022/01/19 06:34:51;;;;;;;45.70;25.17;;;4.40;99.90;;;;;;5044715;28;20025;-75
2022/01/19 06:37:16;;;;;;;55.72;26.38;;;4.40;99.90;;;;;;5037554;28;20025;-75
2022/01/19 06:39:42;;;;;;;54.88;27.13;;;4.40;99.90;;;;;;5041178;28;20116;-75
2022/01/19 06:42:08;;;;;;;50.40;26.27;;;4.40;99.90;;;;;;5034952;28;20078;-75
2022/01/19 06:44:34;;;;;;;56.50;29.27;;;4.40;99.90;;;;;;5034799;28;20030;-75
2022/01/19 06:47:00;;;;;;;56.38;28.10;;;4.40;99.90;;;;;;5036711;28;20029;-74
2022/01/19 06:49:25;;;;;;;51.65;28.63;;;4.40;99.90;;;;;;5033802;28;20037;-74
2022/01/19 06:51:51;;;;;;;53.83;29.33;;;4.50;99.90;;;;;;5039213;28;20075;-74
2022/01/19 06:54:17;;;;;;;52.85;27.35;;;4.50;99.90;;;;;;5034744;28;20025;-75
2022/01/19 06:56:42;;;;;;;48.97;26.38;;;4.50;99.90;;;;;;5039694;28;20037;-75
2022/01/19 06:59:08;;;;;;;48.63;26.80;;;4.50;99.90;;;;;;5041107;28;20033;-75
2022/01/19 07:01:35;;;;;;;47.25;23.75;;;4.50;99.90;;;;;;5039794;28;20036;-74
2022/01/19 07:04:04;;;;;;;48.58;25.85;;;4.50;99.90;;;;;;5040037;28;20032;-74
2022/01/19 07:06:30;;;;;;;48.08;25.13;;;4.60;99.90;;;;;;5034818;28;20501;-74
2022/01/19 07:08:56;;;;;;;48.60;25.75;;;4.60;99.90;;;;;;5041421;28;20030;-74
2022/01/19 07:11:21;;;;;;;52.72;28.42;;;4.70;99.90;;;;;;5038672;28;20500;-75
2022/01/19 07:13:47;;;;;;;44.05;24.60;;;4.70;99.90;;;;;;5042218;28;20029;-74
2022/01/19 07:16:15;;;;;;;47.50;24.63;;;4.70;99.90;;;;;;5037087;28;20100;-73
2022/01/19 07:18:41;;;;;;;46.60;24.73;;;4.70;99.90;;;;;;5041404;28;20130;-74
2022/01/19 07:21:06;;;;;;;39.97;23.00;;;4.70;99.90;;;;;;5034462;28;20077;-74
2022/01/19 07:23:32;;;;;;;45.22;25.95;;;4.70;99.90;;;;;;5050420;28;20030;-74
2022/01/19 07:25:57;;;;;;;49.65;26.40;;;4.70;99.90;;;;;;5041236;28;20029;-74
2022/01/19 07:28:23;;;;;;;46.67;24.73;;;4.70;99.90;;;;;;5037777;28;20105;-74
2022/01/19 07:30:49;;;;;;;45.05;25.83;;;4.70;99.90;;;;;;5037183;28;20091;-74
2022/01/19 07:33:14;;;;;;;42.15;23.98;;;4.70;99.90;;;;;;5042233;28;20047;-73
2022/01/19 07:35:40;;;;;;;49.78;27.25;;;4.80;99.90;;;;;;5040184;28;20060;-74
2022/01/19 07:38:06;;;;;;;50.28;25.23;;;4.80;99.90;;;;;;5042051;28;20486;-74
2022/01/19 07:40:31;;;;;;;46.47;25.00;;;4.70;99.90;;;;;;5045447;28;20091;-74
2022/01/19 07:42:57;;;;;;;42.72;24.50;;;4.70;99.90;;;;;;5047951;28;20021;-74
2022/01/19 07:45:23;;;;;;;43.67;24.50;;;4.70;99.90;;;;;;5045267;28;20154;-74
2022/01/19 07:47:48;;;;;;;47.20;26.42;;;4.80;99.90;;;;;;5047978;28;20025;-74
2022/01/19 07:50:14;;;;;;;40.05;23.20;;;4.80;99.90;;;;;;5035944;28;20363;-73
2022/01/19 07:52:40;;;;;;;45.78;25.02;;;4.80;99.90;;;;;;5042407;28;20045;-74
2022/01/19 07:55:06;;;;;;;43.78;25.38;;;4.90;99.90;;;;;;5042537;28;20100;-73
2022/01/19 07:57:32;;;;;;;42.25;22.92;;;4.90;99.90;;;;;;5057730;28;20121;-73
2022/01/19 07:59:57;;;;;;;46.10;25.42;;;4.90;99.90;;;;;;5038114;28;20113;-75
2022/01/19 08:02:30;;;;;;;47.13;24.20;;;4.90;99.90;;;;;;5042806;28;20029;-74
2022/01/19 08:04:55;;;;;;;41.92;23.33;;;5.00;99.90;;;;;;5047305;28;20033;-74
2022/01/19 08:07:21;;;;;;;42.53;22.38;;;5.00;99.90;;;;;;5039779;28;20538;-74
2022/01/19 08:09:47;;;;;;;40.70;23.33;;;5.00;99.90;;;;;;5040282;28;20035;-75
2022/01/19 08:12:12;;;;;;;50.65;24.20;;;5.00;99.90;;;;;;5040782;28;20154;-75
2022/01/19 08:14:38;;;;;;;36.88;21.55;;;5.10;99.90;;;;;;5042496;28;20029;-74
2022/01/19 08:17:04;;;;;;;41.75;21.42;;;5.10;99.90;;;;;;5045561;28;20071;-74
2022/01/19 08:19:29;;;;;;;34.08;20.27;;;5.10;99.90;;;;;;5042944;28;20044;-74
2022/01/19 08:21:55;;;;;;;45.13;22.48;;;5.10;99.90;;;;;;5039067;28;20025;-75
2022/01/19 08:24:20;;;;;;;35.13;20.40;;;5.10;99.90;;;;;;5045903;28;20558;-74
2022/01/19 08:26:46;;;;;;;44.65;24.73;;;5.20;99.90;;;;;;5040633;28;20025;-74
2022/01/19 08:29:12;;;;;;;44.72;23.25;;;5.10;99.90;;;;;;5040276;28;20398;-75
2022/01/19 08:31:37;;;;;;;41.80;22.27;;;5.10;99.90;;;;;;5043011;28;20017;-74
2022/01/19 08:34:04;;;;;;;41.92;22.70;;;5.10;99.90;;;;;;5044342;28;20385;-74
2022/01/19 08:36:30;;;;;;;47.17;23.48;;;5.10;99.90;;;;;;5050566;28;20013;-74
2022/01/19 08:38:56;;;;;;;45.33;24.45;;;5.10;99.90;;;;;;5040933;28;20501;-75
2022/01/19 08:41:22;;;;;;;44.40;23.52;;;5.20;99.90;;;;;;5042092;28;20028;-74
2022/01/19 08:43:48;;;;;;;44.25;23.58;;;5.20;99.90;;;;;;5044441;28;20041;-75
2022/01/19 08:46:14;;;;;;;43.38;23.73;;;5.20;99.90;;;;;;5040789;28;20029;-73
2022/01/19 08:48:39;;;;;;;46.70;24.88;;;5.20;99.90;;;;;;5043563;28;20064;-74
2022/01/19 08:51:05;;;;;;;45.05;24.70;;;5.30;99.90;;;;;;5039402;28;20055;-74
2022/01/19 08:53:34;;;;;;;41.90;22.98;;;5.20;99.90;;;;;;5031627;28;20025;-73
2022/01/19 08:55:59;;;;;;;44.90;23.63;;;5.30;99.90;;;;;;5036090;28;20021;-73
2022/01/19 08:58:25;;;;;;;44.85;24.52;;;5.30;99.90;;;;;;5044059;28;20455;-74
2022/01/19 09:00:51;;;;;;;43.55;24.02;;;5.30;99.90;;;;;;5040600;28;20440;-74
2022/01/19 09:03:17;;;;;;;47.90;25.75;;;5.30;99.90;;;;;;5042065;28;20489;-74
2022/01/19 09:05:43;;;;;;;44.00;24.80;;;5.30;99.90;;;;;;5040198;28;20036;-75
2022/01/19 09:08:09;;;;;;;45.40;25.90;;;5.30;99.90;;;;;;5041777;28;20021;-74
2022/01/19 09:10:37;;;;;;;45.25;27.75;;;5.40;99.90;;;;;;5041520;28;20388;-73
2022/01/19 09:13:03;;;;;;;47.58;26.77;;;5.40;99.90;;;;;;5043037;28;20021;-74
2022/01/19 09:15:29;;;;;;;44.05;25.90;;;5.40;99.90;;;;;;5046126;28;20028;-73
2022/01/19 09:17:54;;;;;;;43.92;25.88;;;5.40;99.90;;;;;;5044063;28;20196;-74
2022/01/19 09:20:20;;;;;;;46.00;25.02;;;5.40;99.90;;;;;;5038285;28;20037;-74
2022/01/19 09:22:46;;;;;;;54.38;28.70;;;5.40;99.90;;;;;;5041393;28;20473;-73
2022/01/19 09:25:13;;;;;;;47.65;27.58;;;5.50;99.90;;;;;;5042059;28;20025;-73
2022/01/19 09:27:39;;;;;;;42.80;24.10;;;5.50;99.90;;;;;;5039544;28;20465;-73
2022/01/19 09:30:14;;;;;;;52.95;28.20;;;5.40;99.90;;;;;;5042432;28;20032;-73
2022/01/19 09:32:41;;;;;;;48.05;26.90;;;5.50;99.90;;;;;;5034273;28;20165;-73
2022/01/19 09:35:09;;;;;;;49.35;27.77;;;5.50;99.90;;;;;;5042579;28;20108;-73
2022/01/19 09:37:37;;;;;;;47.95;27.52;;;5.50;99.90;;;;;;5037774;28;20052;-73
2022/01/19 09:40:07;;;;;;;51.80;30.23;;;5.50;99.90;;;;;;5045104;28;20040;-73
2022/01/19 09:42:34;;;;;;;52.72;30.48;;;5.50;99.90;;;;;;5038075;28;20028;-74
2022/01/19 09:45:00;;;;;;;49.20;28.80;;;5.60;99.90;;;;;;5036154;28;20028;-73
2022/01/19 09:47:25;;;;;;;43.42;25.65;;;5.60;99.90;;;;;;5044454;28;20033;-74
2022/01/19 09:49:51;;;;;;;50.67;29.02;;;5.60;99.90;;;;;;5036387;28;20545;-72
2022/01/19 09:52:17;;;;;;;49.70;28.52;;;5.70;99.90;;;;;;5040442;28;20493;-73
2022/01/19 09:54:42;;;;;;;45.88;26.42;;;5.70;99.90;;;;;;5041335;28;20103;-74
2022/01/19 09:57:08;;;;;;;44.58;26.58;;;5.70;99.90;;;;;;5038421;28;20482;-74
2022/01/19 09:59:34;;;;;;;51.63;29.73;;;5.70;99.90;;;;;;5041061;28;20041;-73
2022/01/19 10:02:07;;;;;;;47.67;26.55;;;5.80;99.90;;;;;;5027336;28;20079;-74
2022/01/19 10:04:35;;;;;;;46.67;25.60;;;5.70;99.90;;;;;;5034598;28;20061;-73
2022/01/19 10:07:19;;;;;;;46.17;27.20;;;5.70;99.90;;;;;;5039145;28;20101;-74
2022/01/19 10:09:58;;;;;;;46.67;28.10;;;5.70;99.90;;;;;;5042294;28;20040;-74
2022/01/19 10:18:19;;;;;;;40.72;25.27;;;5.70;99.90;;;;;;5034333;28;20497;-73
2022/01/19 10:20:48;;;;;;;47.45;27.27;;;5.60;99.90;;;;;;5034639;28;20025;-75
2022/01/19 10:23:36;;;;;;;42.60;25.77;;;5.70;99.90;;;;;;5038063;28;20018;-74
2022/01/19 10:26:07;;;;;;;44.92;26.10;;;5.70;99.90;;;;;;5039744;28;20378;-74
2022/01/19 10:29:03;;;;;;;50.47;26.77;;;5.70;99.90;;;;;;5032263;28;20029;-72
2022/01/19 10:31:30;;;;;;;46.00;26.08;;;5.70;99.90;;;;;;5038793;28;20509;-74
2022/01/19 10:34:21;;;;;;;55.10;30.27;;;5.70;99.90;;;;;;5043051;28;20032;-74
2022/01/19 10:36:56;;;;;;;48.22;28.05;;;5.70;99.90;;;;;;5033952;28;20116;-74
2022/01/19 10:39:25;;;;;;;50.08;27.27;;;5.70;99.90;;;;;;5038856;28;20482;-74
2022/01/19 10:42:04;;;;;;;51.05;29.10;;;5.80;99.90;;;;;;5032721;28;20056;-74
2022/01/19 10:44:36;;;;;;;48.15;29.60;;;5.80;99.90;;;;;;5032974;28;20029;-75
2022/01/19 10:47:02;;;;;;;47.22;28.08;;;5.90;99.90;;;;;;5030384;28;20489;-74
2022/01/19 10:49:27;;;;;;;48.38;29.52;;;5.80;99.90;;;;;;5038502;28;20025;-73
2022/01/19 10:51:58;;;;;;;47.03;29.20;;;5.90;99.90;;;;;;5035764;28;20028;-73
2022/01/19 10:54:26;;;;;;;53.95;28.63;;;5.90;99.90;;;;;;5037675;28;20497;-73
2022/01/19 10:56:57;;;;;;;43.80;24.77;;;6.00;99.90;;;;;;5026551;28;20072;-75
2022/01/19 10:59:32;;;;;;;49.17;28.15;;;5.90;99.90;;;;;;5032389;28;20516;-75
2022/01/19 11:02:00;;;;;;;48.28;26.80;;;5.90;99.90;;;;;;5029902;28;20029;-73
2022/01/19 11:04:25;;;;;;;53.08;29.85;;;5.90;99.90;;;;;;5030803;28;20028;-74
2022/01/19 11:07:11;;;;;;;55.30;28.92;;;5.90;99.90;;;;;;5034202;28;20029;-74
2022/01/19 11:09:46;;;;;;;49.80;29.02;;;5.90;99.90;;;;;;5047847;28;20822;-74
2022/01/19 11:12:16;;;;;;;53.58;30.45;;;6.00;99.90;;;;;;5036870;28;20028;-75
2022/01/19 11:14:43;;;;;;;51.95;29.40;;;5.90;99.90;;;;;;5033660;28;20115;-75
2022/01/19 11:17:10;;;;;;;49.22;30.33;;;6.00;99.90;;;;;;5037914;28;20021;-75
2022/01/19 11:19:37;;;;;;;51.33;26.30;;;6.00;99.90;;;;;;5037062;28;20029;-75
2022/01/19 11:22:29;;;;;;;48.70;29.35;;;5.90;99.90;;;;;;5039954;28;20017;-75
2022/01/19 11:25:10;;;;;;;53.20;29.88;;;5.90;99.90;;;;;;5041587;28;20040;-75
2022/01/19 11:27:45;;;;;;;48.35;28.95;;;5.90;99.90;;;;;;5027489;28;20044;-75
2022/01/19 11:30:14;;;;;;;52.83;29.83;;;6.00;99.90;;;;;;5039653;28;20082;-74
2022/01/19 11:32:42;;;;;;;50.00;30.05;;;6.00;99.90;;;;;;5035964;28;20063;-74
2022/01/19 11:35:08;;;;;;;53.20;31.90;;;6.10;99.90;;;;;;5041326;28;20113;-74
2022/01/19 11:37:43;;;;;;;52.85;29.98;;;6.10;99.90;;;;;;5035147;28;20382;-74
2022/01/19 11:40:20;;;;;;;46.45;26.77;;;6.10;99.90;;;;;;5035935;28;20065;-76
2022/01/19 11:42:46;;;;;;;50.70;28.83;;;6.10;99.90;;;;;;5032681;28;20442;-75
2022/01/19 11:45:35;;;;;;;51.80;28.48;;;6.20;99.90;;;;;;5041759;28;20025;-75
2022/01/19 11:48:25;;;;;;;46.08;28.88;;;6.10;99.90;;;;;;5036050;28;20601;-75
2022/01/19 11:50:52;;;;;;;47.40;28.40;;;6.20;99.90;;;;;;5035760;28;20493;-76
2022/01/19 11:53:18;;;;;;;50.92;30.02;;;6.10;99.90;;;;;;5032693;28;20079;-76
2022/01/19 11:56:11;;;;;;;53.72;32.22;;;6.20;99.90;;;;;;5039839;28;20381;-76
2022/01/19 11:58:37;;;;;;;56.10;30.55;;;6.10;99.90;;;;;;5037701;28;20040;-76
2022/01/19 12:01:21;;;;;;;53.42;30.27;;;6.20;99.90;;;;;;5037397;28;20083;-76
2022/01/19 12:03:46;;;;;;;56.45;32.60;;;6.10;99.90;;;;;;5032868;28;20021;-77
2022/01/19 12:06:30;;;;;;;54.65;33.38;;;6.20;99.90;;;;;;5033897;28;20030;-76
2022/01/19 12:08:56;;;;;;;53.05;30.23;;;6.20;99.90;;;;;;5038855;28;20033;-76
2022/01/19 12:11:23;;;;;;;52.00;31.20;;;6.10;99.90;;;;;;5035208;28;20029;-77
2022/01/19 12:14:24;;;;;;;58.45;32.20;;;6.20;99.90;;;;;;5037382;28;20059;-76
2022/01/19 12:19:35;;;;;;;54.05;31.00;;;6.20;99.90;;;;;;5034503;28;20478;-76
2022/01/19 12:22:26;;;;;;;58.88;33.72;;;6.20;99.90;;;;;;5036052;28;20856;-76
2022/01/19 12:25:11;;;;;;;57.80;32.30;;;6.20;99.90;;;;;;5036332;28;20492;-76
2022/01/19 12:27:41;;;;;;;54.13;31.90;;;6.20;99.90;;;;;;5038597;28;20467;-76
2022/01/19 12:30:15;;;;;;;58.85;33.47;;;6.20;99.90;;;;;;5037565;28;20025;-76
2022/01/19 12:32:43;;;;;;;59.92;34.50;;;6.20;99.90;;;;;;5036379;28;20044;-77
2022/01/19 12:35:11;;;;;;;58.83;34.83;;;6.20;99.90;;;;;;5032271;28;20037;-76
2022/01/19 12:37:47;;;;;;;58.30;32.80;;;6.20;99.90;;;;;;5030697;28;20057;-75
2022/01/19 12:40:21;;;;;;;59.97;34.50;;;6.10;99.90;;;;;;5036259;28;20036;-75
2022/01/19 12:42:49;;;;;;;65.93;35.60;;;6.10;99.90;;;;;;5051648;28;20458;-75
2022/01/19 12:45:44;;;;;;;65.00;34.85;;;6.10;99.90;;;;;;5033542;28;20063;-75
2022/01/19 12:48:12;;;;;;;61.30;33.70;;;6.10;99.90;;;;;;5036335;28;20042;-75
2022/01/19 12:50:45;;;;;;;65.57;36.70;;;6.20;99.90;;;;;;5040170;28;20023;-75
2022/01/19 12:53:21;;;;;;;69.50;37.15;;;6.20;99.90;;;;;;5036677;28;20078;-75
2022/01/19 12:56:05;;;;;;;64.30;36.20;;;6.20;99.90;;;;;;5033110;28;20660;-75
2022/01/19 12:58:36;;;;;;;68.25;36.63;;;6.30;99.90;;;;;;5031493;28;20632;-74
2022/01/19 13:01:11;;;;;;;61.30;33.78;;;6.40;99.90;;;;;;5029279;28;20028;-74
2022/01/19 13:03:43;;;;;;;67.13;36.40;;;6.30;99.90;;;;;;5036387;28;20037;-75
2022/01/19 13:06:13;;;;;;;67.10;36.93;;;6.30;99.90;;;;;;5036704;28;20389;-74
2022/01/19 13:09:13;;;;;;;67.75;37.25;;;6.20;99.90;;;;;;5032894;28;20051;-74
2022/01/19 13:11:42;;;;;;;68.25;33.80;;;6.30;99.90;;;;;;5033910;28;20038;-75
2022/01/19 13:14:10;;;;;;;72.18;39.10;;;6.30;99.90;;;;;;5036910;28;20116;-75
2022/01/19 13:16:47;;;;;;;66.40;36.25;;;6.40;99.90;;;;;;5034808;28;20028;-76
2022/01/19 13:19:16;;;;;;;64.32;35.72;;;6.40;99.90;;;;;;5037519;28;20092;-76
2022/01/19 13:21:44;;;;;;;64.57;34.22;;;6.50;99.90;;;;;;5033355;28;20120;-76
2022/01/19 13:24:20;;;;;;;67.78;34.85;;;6.50;99.90;;;;;;5034143;28;20029;-75
2022/01/19 13:26:48;;;;;;;62.25;34.58;;;6.50;99.90;;;;;;5038648;28;20024;-75
2022/01/19 13:29:19;;;;;;;61.20;33.83;;;6.50;99.90;;;;;;5035841;28;20496;-75
2022/01/19 13:32:22;;;;;;;63.63;35.28;;;6.50;99.90;;;;;;5035131;28;20021;-75
2022/01/19 13:34:53;;;;;;;62.20;32.30;;;6.50;99.90;;;;;;5053249;28;20037;-75
2022/01/19 13:37:20;;;;;;;62.88;33.90;;;6.50;99.90;;;;;;5036374;28;20512;-75
2022/01/19 13:39:54;;;;;;;63.55;33.08;;;6.50;99.90;;;;;;5037086;28;20088;-74
2022/01/19 13:42:37;;;;;;;60.83;33.92;;;6.50;99.90;;;;;;5036111;28;20017;-74
2022/01/19 13:45:09;;;;;;;62.22;34.10;;;6.50;99.90;;;;;;5034298;28;20036;-74
2022/01/19 13:48:48;;;;;;;59.65;33.25;;;6.60;99.90;;;;;;5029800;28;20482;-75
2022/01/19 13:51:09;;;;;;;;;;;6.60;99.90;;;;;;5041227;28;20409;-73
2022/01/19 13:53:37;;;;;;;59.17;32.15;;;6.60;99.90;;;;;;5039828;28;20362;-75
2022/01/19 13:56:09;;;;;;;60.85;33.50;;;6.60;99.90;;;;;;5035387;28;20017;-75
2022/01/19 13:58:45;;;;;;;63.60;33.95;;;6.60;99.90;;;;;;5036122;28;20124;-75
2022/01/19 14:01:14;;;;;;;64.00;34.72;;;6.60;99.90;;;;;;5035309;28;20021;-75
2022/01/19 14:03:51;;;;;;;63.92;32.60;;;6.60;99.90;;;;;;5032301;28;20091;-75
2022/01/19 14:06:29;;;;;;;59.17;32.50;;;6.50;99.90;;;;;;5047971;28;20407;-74
2022/01/19 14:09:06;;;;;;;66.88;35.25;;;6.50;99.90;;;;;;5035409;28;20033;-74
2022/01/19 14:11:34;;;;;;;64.28;34.50;;;6.50;99.90;;;;;;5034492;28;20548;-75
2022/01/19 14:14:02;;;;;;;59.65;32.67;;;6.50;99.90;;;;;;5031851;28;20032;-74
2022/01/19 14:16:36;;;;;;;64.28;35.83;;;6.50;99.90;;;;;;5029134;28;20113;-75